Aérodrome :
LOGIN :

S'inscrire | Disclaimer

   EN    FR    IT 

 










Légende :    VFR   VFR Marginal   IFR   IFR Intensif   IFR Très Intensif
Visi : 
Plafond : 
>= 8 km
>= 3000ft
5 à 8 km
1000 à 3000 ft
1500m à 5 km
500 à 1000 ft
800 à 1500m
200 à 500 ft
< 800m
< 200 ft
Symboles :   Orages  Brouillard  Fortes neiges  Fortes précipitations  Vent > 20 kt
SIGMETs :   Divers  Orages  Givrage  Turbulence  Onde Orograph.  Cendres Volcan.






- Altitude de l'aérodrome : 935 ft


EBFS - Florennes

DERNIER METAR :
  • 252125Z AUTO 16003KT 9999 FEW100/// BKN110/// BKN130/// 06/04 Q1019 BLU

METARs EXPIRÉS :
  • 252055Z AUTO 17005KT 9999 SCT100/// BKN120/// 06/04 Q1018 BLU
  • 252025Z AUTO 17006KT 9999 SCT100/// BKN110/// BKN130/// 06/04 Q1018 BLU
  • 251955Z AUTO 17004KT 9999 BKN034/// OVC110/// 07/04 Q1018 BLU
  • 251925Z AUTO 18008KT 9999 BKN030/// OVC110/// 07/05 Q1018 BLU
  • 251855Z AUTO 18010KT 9999 SCT026/// BKN030/// BKN110/// 07/04 Q1018 BLU

TAF TAF EBFS
Valide du 25 à 19h jusqu'au 26 à 07h UTC


251541Z 2519/2607 18012KT 8000 SCT025 BKN200
BECMG 2520/2522 18006KT 3000 BR FEW004 BKN170
PROB40
TEMPO 2522/2607 VRB02KT 0500 FG SCT001 SCT003



MET'MAP, la Météo Aéronautique d'un coup d'oeil ! - Copyright ORBIFLY Décembre 2007 - Disclaimer

ORBIFLY MET'MAP TEAM :

Programmation & Développement : Alexandra Zaïnal
Sur une idée originale de : Baudouin d'Aumeries
Assistance à la programmation : Marc-Olivier Méhu
Soutien technique & logistique : Manuel Goepfert

Contact : metmap@orbifly.com




SOURCES & CREDITS :

   NOAA